createdAt,value
2022-10-24T00:01:30.286Z,2.08
2022-10-24T00:03:32.322Z,1.45
2022-10-24T00:05:33.893Z,1.92
2022-10-24T00:07:35.504Z,1.50
2022-10-24T00:09:37.697Z,1.20
2022-10-24T00:11:41.984Z,1.67
2022-10-24T00:13:44.123Z,1.95
2022-10-24T00:15:48.341Z,1.70
2022-10-24T00:17:50.181Z,1.65
2022-10-24T00:19:54.239Z,2.35
2022-10-24T00:21:55.875Z,1.83
2022-10-24T00:23:57.428Z,1.67
2022-10-24T00:26:02.055Z,1.63
2022-10-24T00:28:04.068Z,1.77
2022-10-24T00:30:06.323Z,2.78
2022-10-24T00:32:08.010Z,1.75
2022-10-24T00:34:09.780Z,1.60
2022-10-24T00:36:16.765Z,1.50
2022-10-24T00:38:21.275Z,1.45
2022-10-24T00:40:23.081Z,1.90
2022-10-24T00:42:24.706Z,1.48
2022-10-24T00:44:28.883Z,1.45
2022-10-24T00:46:31.724Z,1.15
2022-10-24T00:48:53.190Z,1.15
2022-10-24T00:50:59.769Z,2.05
2022-10-24T00:53:01.425Z,1.83
2022-10-24T00:55:04.389Z,1.52
2022-10-24T00:57:16.961Z,1.40
2022-10-24T00:59:20.175Z,1.52
2022-10-24T01:01:21.772Z,2.05
2022-10-24T01:03:23.883Z,2.03
2022-10-24T01:05:28.810Z,1.90
2022-10-24T01:07:36.414Z,1.40
2022-10-24T01:09:56.506Z,2.13
2022-10-24T01:12:07.114Z,1.20
2022-10-24T01:14:17.671Z,1.10
2022-10-24T01:16:33.995Z,1.55
2022-10-24T01:18:50.564Z,1.55
2022-10-24T01:21:03.414Z,2.65
2022-10-24T01:23:26.744Z,3.47
2022-10-24T01:25:46.364Z,3.30
2022-10-24T01:27:56.890Z,1.50
2022-10-24T01:30:11.328Z,1.20
2022-10-24T01:32:31.312Z,1.98
2022-10-24T01:34:38.843Z,1.40
2022-10-24T01:36:47.404Z,1.58
2022-10-24T01:38:54.671Z,1.10
2022-10-24T01:40:59.524Z,1.50
2022-10-24T01:43:08.545Z,1.83
2022-10-24T01:45:12.490Z,1.45
2022-10-24T01:47:23.479Z,1.25
2022-10-24T01:49:28.833Z,2.42
2022-10-24T01:51:32.219Z,1.10
2022-10-24T01:53:34.258Z,1.15
2022-10-24T01:55:36.638Z,1.58
2022-10-24T01:57:39.645Z,2.10
2022-10-24T01:59:48.728Z,1.20
2022-10-24T02:01:50.755Z,1.55
2022-10-24T02:03:57.221Z,1.90
2022-10-24T02:06:08.504Z,1.58
2022-10-24T02:08:18.721Z,1.95
2022-10-24T02:10:26.874Z,1.58
2022-10-24T02:12:29.216Z,2.17
2022-10-24T02:14:34.436Z,2.33
2022-10-24T02:16:36.208Z,2.08
2022-10-24T02:18:39.269Z,1.92
2022-10-24T02:20:49.659Z,2.70
2022-10-24T02:22:58.402Z,2.28
2022-10-24T02:25:06.039Z,1.15
2022-10-24T02:27:12.632Z,1.73
2022-10-24T02:29:18.669Z,1.52
2022-10-24T02:31:23.183Z,3.33
2022-10-24T02:33:26.648Z,2.15
2022-10-24T02:35:33.182Z,1.83
2022-10-24T02:37:37.093Z,1.98
2022-10-24T02:39:40.163Z,1.90
2022-10-24T02:41:42.834Z,1.75
2022-10-24T02:43:44.881Z,1.80
2022-10-24T02:45:47.225Z,2.67
2022-10-24T02:47:50.302Z,1.67
2022-10-24T02:49:51.977Z,1.98
2022-10-24T02:51:54.113Z,2.58
2022-10-24T02:53:56.500Z,1.80
2022-10-24T02:55:58.150Z,1.83
2022-10-24T02:57:59.767Z,1.52
2022-10-24T03:00:01.371Z,2.25
2022-10-24T03:02:03.136Z,2.42
2022-10-24T03:04:05.219Z,2.03
2022-10-24T03:06:07.202Z,2.85
2022-10-24T03:08:08.861Z,1.40
2022-10-24T03:10:10.519Z,2.22
2022-10-24T03:12:17.851Z,1.63
2022-10-24T03:14:19.510Z,1.55
2022-10-24T03:16:21.146Z,1.75
2022-10-24T03:18:22.805Z,1.73
2022-10-24T03:20:27.271Z,1.85
2022-10-24T03:22:30.815Z,2.03
2022-10-24T03:24:43.715Z,1.70
2022-10-24T03:26:45.814Z,1.60
2022-10-24T03:28:47.427Z,1.45
2022-10-24T03:30:49.147Z,2.00
2022-10-24T03:32:50.874Z,1.80
2022-10-24T03:34:52.512Z,2.13
2022-10-24T03:36:54.110Z,2.30
2022-10-24T03:38:55.787Z,3.05
2022-10-24T03:40:57.956Z,2.00
2022-10-24T03:42:59.593Z,2.42
2022-10-24T03:45:01.176Z,1.88
2022-10-24T03:47:02.828Z,2.45
2022-10-24T03:49:04.433Z,1.33
2022-10-24T03:51:06.208Z,2.13
2022-10-24T03:53:08.375Z,1.75
2022-10-24T03:55:10.554Z,1.58
2022-10-24T03:57:12.261Z,1.20
2022-10-24T03:59:35.437Z,2.10
2022-10-24T04:01:37.163Z,2.03
2022-10-24T04:03:38.798Z,1.65
2022-10-24T04:05:40.926Z,1.50
2022-10-24T04:07:42.988Z,2.75
2022-10-24T04:09:44.875Z,2.35
2022-10-24T04:11:47.302Z,1.50
2022-10-24T04:13:49.072Z,1.80
2022-10-24T04:15:50.651Z,1.70
2022-10-24T04:17:52.359Z,1.88
2022-10-24T04:19:53.959Z,1.30
2022-10-24T04:21:55.627Z,2.47
2022-10-24T04:23:57.456Z,2.55
2022-10-24T04:25:59.067Z,2.88
2022-10-24T04:28:00.732Z,2.10
2022-10-24T04:30:02.344Z,2.22
2022-10-24T04:32:04.184Z,2.78
2022-10-24T04:34:06.279Z,2.67
2022-10-24T04:36:08.142Z,2.10
2022-10-24T04:38:09.768Z,3.22
2022-10-24T04:40:11.729Z,2.10
2022-10-24T04:42:13.345Z,1.45
2022-10-24T04:44:14.926Z,1.90
2022-10-24T04:46:16.501Z,3.03
2022-10-24T04:48:18.291Z,1.33
2022-10-24T04:50:20.055Z,1.00
2022-10-24T04:52:21.854Z,1.55
2022-10-24T04:54:23.452Z,2.05
2022-10-24T04:56:26.889Z,1.70
2022-10-24T04:58:28.599Z,2.13
2022-10-24T05:00:30.365Z,1.77
2022-10-24T05:02:32.049Z,1.67
2022-10-24T05:04:33.907Z,1.42
2022-10-24T05:06:35.518Z,2.17
2022-10-24T05:08:37.319Z,2.13
2022-10-24T05:10:39.196Z,1.95
2022-10-24T05:12:41.131Z,2.50
2022-10-24T05:14:42.820Z,1.65
2022-10-24T05:16:44.645Z,2.33
2022-10-24T05:18:46.236Z,1.98
2022-10-24T05:20:47.875Z,2.53
2022-10-24T05:22:49.525Z,2.28
2022-10-24T05:24:51.169Z,2.10
2022-10-24T05:26:52.766Z,3.08
2022-10-24T05:28:57.369Z,1.67
2022-10-24T05:30:59.301Z,2.42
2022-10-24T05:33:00.979Z,1.70
2022-10-24T05:35:02.916Z,2.13
2022-10-24T05:37:04.573Z,1.58
2022-10-24T05:39:06.326Z,2.35
2022-10-24T05:41:08.006Z,1.60
2022-10-24T05:43:09.708Z,2.28
2022-10-24T05:45:11.642Z,2.55
2022-10-24T05:47:13.399Z,2.00
2022-10-24T05:49:14.969Z,1.83
2022-10-24T05:51:16.699Z,2.00
2022-10-24T05:53:18.311Z,2.03
2022-10-24T05:55:20.013Z,2.75
2022-10-24T05:57:21.693Z,1.20
2022-10-24T05:59:23.358Z,1.90
2022-10-24T06:01:25.293Z,2.35
2022-10-24T06:03:27.091Z,2.97
2022-10-24T06:05:28.843Z,2.10
2022-10-24T06:07:31.621Z,1.83
2022-10-24T06:09:33.211Z,1.92
2022-10-24T06:11:34.976Z,1.65
2022-10-24T06:13:36.957Z,2.70
2022-10-24T06:15:38.688Z,2.20
2022-10-24T06:17:40.448Z,1.95
2022-10-24T06:19:42.195Z,1.90
2022-10-24T06:21:43.962Z,1.58
2022-10-24T06:23:45.623Z,2.38
2022-10-24T06:25:47.309Z,2.22
2022-10-24T06:27:48.929Z,2.17
2022-10-24T06:29:50.587Z,2.15
2022-10-24T06:31:52.265Z,2.55
2022-10-24T06:33:55.781Z,2.00
2022-10-24T06:36:01.539Z,2.13
2022-10-24T06:38:03.211Z,2.45
2022-10-24T06:40:05.415Z,2.28
2022-10-24T06:42:07.165Z,2.08
2022-10-24T06:44:10.962Z,3.50
2022-10-24T06:46:15.721Z,3.15
2022-10-24T06:48:17.396Z,3.00
2022-10-24T06:50:19.037Z,2.60
2022-10-24T06:52:20.705Z,2.92
2022-10-24T06:54:24.156Z,2.60
2022-10-24T06:56:28.133Z,2.30
2022-10-24T06:58:37.582Z,2.45
2022-10-24T07:00:39.438Z,3.25
2022-10-24T07:02:41.048Z,2.58
2022-10-24T07:04:42.932Z,2.50
2022-10-24T07:06:44.809Z,2.08
2022-10-24T07:08:46.714Z,2.08
2022-10-24T07:10:48.689Z,1.85
2022-10-24T07:12:50.383Z,1.80
2022-10-24T07:14:52.354Z,2.00
2022-10-24T07:16:54.016Z,3.63
2022-10-24T07:18:55.826Z,2.45
2022-10-24T07:21:09.863Z,1.70
2022-10-24T07:23:11.495Z,2.08
2022-10-24T07:25:16.001Z,2.15
2022-10-24T07:27:17.594Z,2.85
2022-10-24T07:29:22.102Z,2.47
2022-10-24T07:31:26.132Z,2.72
2022-10-24T07:33:28.241Z,2.05
2022-10-24T07:35:29.925Z,2.08
2022-10-24T07:37:31.597Z,1.63
2022-10-24T07:39:33.212Z,1.90
2022-10-24T07:41:37.771Z,2.58
2022-10-24T07:43:39.555Z,1.55
2022-10-24T07:45:41.526Z,1.65
2022-10-24T07:47:43.817Z,2.75
2022-10-24T07:49:45.626Z,1.60
2022-10-24T07:51:47.333Z,2.30
2022-10-24T07:53:49.250Z,1.88
2022-10-24T07:55:50.909Z,1.58
2022-10-24T07:57:52.703Z,3.67
2022-10-24T07:59:54.383Z,1.83
2022-10-24T08:01:59.024Z,2.47
2022-10-24T08:04:00.766Z,1.90
2022-10-24T08:06:09.488Z,1.88
2022-10-24T08:08:27.478Z,1.25
2022-10-24T08:10:33.292Z,1.40
2022-10-24T08:12:38.169Z,1.20
2022-10-24T08:14:41.331Z,1.17
2022-10-24T08:16:42.952Z,1.13
2022-10-24T08:18:48.528Z,1.60
2022-10-24T08:21:05.270Z,1.45
2022-10-24T08:23:09.751Z,1.55
2022-10-24T08:25:11.864Z,2.15
2022-10-24T08:27:13.755Z,1.20
2022-10-24T08:29:22.111Z,1.52
2022-10-24T08:31:25.360Z,1.52
2022-10-24T08:33:27.089Z,1.00
2022-10-24T08:35:28.801Z,1.73
2022-10-24T08:37:31.579Z,1.10
2022-10-24T08:39:35.519Z,1.52
2022-10-24T08:41:40.049Z,1.40
2022-10-24T08:43:44.554Z,1.25
2022-10-24T08:46:07.801Z,1.10
2022-10-24T08:48:14.047Z,1.60
2022-10-24T08:50:33.591Z,1.05
2022-10-24T08:52:36.648Z,1.63
2022-10-24T08:54:40.539Z,0.80
2022-10-24T08:56:42.212Z,0.88
2022-10-24T08:58:45.266Z,1.13
2022-10-24T09:00:51.705Z,1.00
2022-10-24T09:03:01.860Z,0.93
2022-10-24T09:05:25.163Z,1.00
2022-10-24T09:07:27.065Z,0.82
2022-10-24T09:09:37.152Z,1.40
2022-10-24T09:11:53.819Z,0.90
2022-10-24T09:13:55.764Z,0.90
2022-10-24T09:15:58.359Z,0.80
2022-10-24T09:18:00.287Z,0.70
2022-10-24T09:20:20.555Z,0.95
2022-10-24T09:22:23.816Z,0.85
2022-10-24T09:24:29.713Z,1.65
2022-10-24T09:26:31.682Z,0.93
2022-10-24T09:28:38.238Z,1.02
2022-10-24T09:30:40.137Z,0.80
2022-10-24T09:32:42.704Z,0.80
2022-10-24T09:34:45.262Z,1.30
2022-10-24T09:36:46.930Z,1.02
2022-10-24T09:38:51.336Z,0.85
2022-10-24T09:40:56.875Z,1.10
2022-10-24T09:43:15.636Z,1.38
2022-10-24T09:45:39.309Z,0.75
2022-10-24T09:47:42.163Z,0.90
2022-10-24T09:49:46.670Z,0.98
2022-10-24T09:51:51.657Z,1.23
2022-10-24T09:54:20.885Z,0.80
2022-10-24T09:56:22.750Z,0.95
2022-10-24T09:58:32.810Z,1.27
2022-10-24T10:00:36.402Z,0.82
2022-10-24T10:02:38.355Z,0.90
2022-10-24T10:04:41.107Z,1.10
2022-10-24T10:06:51.746Z,1.10
2022-10-24T10:08:58.027Z,1.20
2022-10-24T10:11:07.409Z,0.90
2022-10-24T10:13:16.808Z,0.85
2022-10-24T10:15:20.207Z,1.40
2022-10-24T10:17:27.274Z,0.90
2022-10-24T10:19:40.199Z,0.90
2022-10-24T10:22:23.672Z,0.90
2022-10-24T10:24:27.822Z,1.02
2022-10-24T10:26:41.625Z,0.80
2022-10-24T10:29:21.400Z,1.20
2022-10-24T10:31:34.696Z,1.42
2022-10-24T10:33:48.385Z,0.65
2022-10-24T10:36:02.908Z,0.90
2022-10-24T10:38:38.796Z,0.73
2022-10-24T10:41:06.427Z,1.00
2022-10-24T10:43:11.930Z,1.77
2022-10-24T10:45:37.157Z,0.93
2022-10-24T10:48:09.961Z,0.70
2022-10-24T10:50:37.709Z,0.77
2022-10-24T10:52:55.219Z,1.38
2022-10-24T10:55:20.654Z,0.80
2022-10-24T10:57:39.578Z,0.60
2022-10-24T11:00:07.797Z,0.60
2022-10-24T11:02:19.890Z,0.90
2022-10-24T11:04:37.076Z,0.75
2022-10-24T11:06:50.772Z,0.60
2022-10-24T11:09:11.588Z,0.70
2022-10-24T11:11:17.972Z,0.90
2022-10-24T11:13:41.007Z,0.80
2022-10-24T11:15:46.413Z,0.70
2022-10-24T11:18:13.930Z,0.85
2022-10-24T11:20:26.670Z,0.70
2022-10-24T11:23:01.752Z,0.38
2022-10-24T11:25:28.292Z,0.70
2022-10-24T11:27:39.482Z,1.20
2022-10-24T11:30:02.913Z,0.70
2022-10-24T11:32:26.705Z,0.43
2022-10-24T11:34:44.642Z,0.80
2022-10-24T11:36:55.977Z,0.40
2022-10-24T11:39:07.265Z,0.77
2022-10-24T11:41:20.938Z,0.70
2022-10-24T11:43:35.687Z,0.68
2022-10-24T11:45:48.106Z,0.73
2022-10-24T11:48:20.238Z,0.70
2022-10-24T11:50:40.046Z,0.90
2022-10-24T11:53:21.126Z,2.88
2022-10-24T11:55:39.002Z,0.75
2022-10-24T11:57:45.298Z,0.52
2022-10-24T11:59:47.583Z,0.60
2022-10-24T12:01:55.791Z,0.55
2022-10-24T12:04:26.013Z,0.60
2022-10-24T12:06:37.059Z,1.15
2022-10-24T12:09:00.829Z,0.50
2022-10-24T12:11:18.972Z,0.65
2022-10-24T12:13:45.717Z,0.70
2022-10-24T12:15:53.822Z,0.80
2022-10-24T12:18:25.601Z,0.52
2022-10-24T12:20:28.166Z,0.60
2022-10-24T12:22:37.086Z,0.60
2022-10-24T12:24:39.365Z,0.47
2022-10-24T12:26:43.675Z,0.65
2022-10-24T12:29:06.608Z,1.00
2022-10-24T12:31:22.507Z,0.40
2022-10-24T12:33:27.928Z,0.68
2022-10-24T12:35:31.665Z,0.70
2022-10-24T12:37:35.327Z,0.40
2022-10-24T12:39:48.002Z,0.30
2022-10-24T12:41:49.971Z,0.63
2022-10-24T12:43:51.667Z,0.77
2022-10-24T12:45:53.264Z,0.50
2022-10-24T12:49:59.290Z,0.75
2022-10-24T12:52:32.538Z,0.50
2022-10-24T12:54:43.316Z,0.43
2022-10-24T12:56:51.240Z,0.28
2022-10-24T12:58:58.199Z,0.55
2022-10-24T13:01:06.134Z,0.60
2022-10-24T13:03:30.720Z,0.63
2022-10-24T13:05:56.954Z,0.50
2022-10-24T13:08:21.747Z,0.40
2022-10-24T13:10:38.096Z,0.50
2022-10-24T13:12:51.869Z,0.65
2022-10-24T13:15:18.702Z,0.30
2022-10-24T13:18:01.718Z,0.50
2022-10-24T13:20:19.465Z,0.25
2022-10-24T13:22:34.012Z,0.30
2022-10-24T13:24:38.041Z,0.35
2022-10-24T13:26:41.318Z,0.30
2022-10-24T13:28:44.133Z,0.45
2022-10-24T13:30:49.588Z,0.40
2022-10-24T13:32:51.766Z,0.40
2022-10-24T13:34:54.724Z,0.75
2022-10-24T13:37:11.086Z,0.50
2022-10-24T13:39:18.241Z,0.20
2022-10-24T13:41:42.418Z,0.32
2022-10-24T13:43:47.215Z,0.60
2022-10-24T13:46:03.067Z,0.50
2022-10-24T13:48:46.620Z,0.30
2022-10-24T13:51:12.351Z,0.40
2022-10-24T13:53:30.396Z,0.50
2022-10-24T13:55:32.358Z,0.25
2022-10-24T13:57:37.937Z,0.30
2022-10-24T13:59:39.585Z,0.40
2022-10-24T14:01:41.470Z,0.30
2022-10-24T14:03:44.078Z,0.40
2022-10-24T14:05:49.169Z,0.43
2022-10-24T14:07:50.803Z,0.30
2022-10-24T14:09:58.888Z,0.40
2022-10-24T14:12:00.503Z,0.50
2022-10-24T14:14:07.053Z,0.50
2022-10-24T14:16:10.474Z,0.70
2022-10-24T14:18:14.737Z,0.30
2022-10-24T14:20:21.639Z,0.40
2022-10-24T14:22:45.500Z,0.38
2022-10-24T14:24:48.549Z,0.55
2022-10-24T14:26:53.191Z,0.40
2022-10-24T14:29:00.077Z,0.38
2022-10-24T14:31:08.111Z,0.40
2022-10-24T14:33:15.837Z,0.30
2022-10-24T14:35:17.534Z,0.40
2022-10-24T14:37:27.470Z,0.30
2022-10-24T14:39:29.598Z,0.32
2022-10-24T14:41:33.286Z,0.32
2022-10-24T14:43:35.006Z,0.40
2022-10-24T14:45:36.695Z,0.22
2022-10-24T14:47:39.385Z,0.40
2022-10-24T14:49:40.970Z,0.30
2022-10-24T14:51:42.977Z,0.45
2022-10-24T14:53:45.969Z,0.20
2022-10-24T14:55:55.498Z,0.43
2022-10-24T14:57:57.142Z,0.47
2022-10-24T15:00:07.036Z,0.68
2022-10-24T15:02:20.626Z,0.50
2022-10-24T15:04:52.017Z,0.60
2022-10-24T15:06:56.248Z,0.57
2022-10-24T15:09:17.657Z,0.50
2022-10-24T15:11:22.057Z,0.45
2022-10-24T15:13:25.353Z,0.60
2022-10-24T15:15:34.551Z,0.40
2022-10-24T15:17:38.972Z,0.40
2022-10-24T15:19:40.559Z,0.32
2022-10-24T15:21:45.876Z,1.00
2022-10-24T15:23:55.603Z,0.45
2022-10-24T15:26:10.675Z,0.30
2022-10-24T15:28:43.124Z,0.55
2022-10-24T15:30:44.712Z,0.40
2022-10-24T15:32:47.710Z,0.70
2022-10-24T15:34:53.218Z,0.50
2022-10-24T15:36:57.022Z,0.60
2022-10-24T15:39:00.596Z,0.40
2022-10-24T15:41:02.244Z,0.30
2022-10-24T15:43:03.940Z,0.50
2022-10-24T15:45:13.289Z,0.40
2022-10-24T15:47:14.935Z,0.70
2022-10-24T15:49:16.781Z,0.68
2022-10-24T15:51:21.182Z,0.57
2022-10-24T15:53:22.781Z,0.50
2022-10-24T15:55:26.140Z,1.02
2022-10-24T15:57:27.694Z,0.45
2022-10-24T15:59:29.351Z,0.90
2022-10-24T16:01:38.591Z,0.60
2022-10-24T16:03:42.122Z,0.70
2022-10-24T16:05:47.369Z,0.43
2022-10-24T16:07:49.214Z,0.45
2022-10-24T16:09:51.092Z,0.40
2022-10-24T16:11:52.817Z,0.50
2022-10-24T16:13:54.634Z,0.63
2022-10-24T16:15:56.432Z,0.70
2022-10-24T16:17:58.581Z,0.52
2022-10-24T16:20:00.284Z,0.45
2022-10-24T16:22:02.872Z,0.52
2022-10-24T16:24:05.017Z,1.17
2022-10-24T16:26:06.603Z,0.40
2022-10-24T16:28:08.384Z,0.70
2022-10-24T16:30:12.012Z,0.63
2022-10-24T16:32:13.674Z,0.50
2022-10-24T16:34:15.345Z,0.50
2022-10-24T16:36:20.809Z,0.50
2022-10-24T16:38:25.496Z,0.60
2022-10-24T16:40:28.337Z,0.60
2022-10-24T16:42:29.992Z,0.50
2022-10-24T16:44:33.194Z,0.60
2022-10-24T16:46:34.846Z,1.30
2022-10-24T16:48:36.432Z,0.93
2022-10-24T16:50:41.478Z,0.80
2022-10-24T16:52:45.042Z,1.13
2022-10-24T16:54:46.948Z,0.82
2022-10-24T16:56:53.606Z,0.82
2022-10-24T16:58:56.209Z,1.55
2022-10-24T17:01:05.935Z,0.60
2022-10-24T17:03:08.302Z,0.85
2022-10-24T17:05:09.934Z,0.70
2022-10-24T17:07:12.501Z,1.20
2022-10-24T17:09:14.173Z,1.00
2022-10-24T17:11:43.236Z,0.93
2022-10-24T17:13:37.343Z,0.90
2022-10-24T17:15:39.503Z,0.70
2022-10-24T17:17:41.365Z,0.35
2022-10-24T17:19:44.363Z,0.70
2022-10-24T17:21:48.562Z,0.70
2022-10-24T17:23:53.820Z,0.60
2022-10-24T17:25:55.635Z,0.60
2022-10-24T17:27:57.424Z,0.50
2022-10-24T17:29:59.244Z,1.25
2022-10-24T17:32:01.304Z,0.60
2022-10-24T17:34:03.358Z,0.35
2022-10-24T17:36:07.723Z,0.60
2022-10-24T17:38:18.362Z,0.63
2022-10-24T17:40:22.492Z,0.60
2022-10-24T17:42:24.404Z,0.52
2022-10-24T17:44:26.184Z,0.40
2022-10-24T17:46:27.947Z,0.52
2022-10-24T17:48:29.718Z,0.40
2022-10-24T17:50:31.324Z,0.70
2022-10-24T17:52:32.978Z,0.50
2022-10-24T17:54:38.564Z,0.50
2022-10-24T17:56:42.557Z,0.75
2022-10-24T17:58:44.159Z,1.83
2022-10-24T18:00:46.097Z,0.75
2022-10-24T18:02:50.195Z,0.60
2022-10-24T18:04:51.762Z,0.40
2022-10-24T18:06:53.419Z,0.50
2022-10-24T18:08:56.008Z,0.55
2022-10-24T18:11:05.676Z,0.50
2022-10-24T18:13:07.837Z,0.70
2022-10-24T18:15:15.124Z,0.45
2022-10-24T18:17:16.709Z,0.90
2022-10-24T18:19:18.340Z,0.63
2022-10-24T18:21:22.089Z,0.60
2022-10-24T18:23:23.694Z,0.55
2022-10-24T18:25:25.340Z,0.50
2022-10-24T18:27:26.997Z,0.60
2022-10-24T18:29:28.643Z,0.73
2022-10-24T18:31:31.105Z,0.40
2022-10-24T18:33:32.926Z,0.57
2022-10-24T18:35:35.812Z,0.80
2022-10-24T18:37:37.696Z,0.60
2022-10-24T18:39:39.275Z,0.77
2022-10-24T18:41:56.464Z,0.57
2022-10-24T18:44:00.512Z,0.93
2022-10-24T18:46:02.775Z,0.90
2022-10-24T18:48:04.666Z,1.10
2022-10-24T18:50:06.685Z,0.95
2022-10-24T18:52:14.647Z,1.17
2022-10-24T18:56:21.580Z,1.13
2022-10-24T18:58:23.276Z,0.77
2022-10-24T19:00:27.246Z,1.20
2022-10-24T19:02:34.046Z,0.88
2022-10-24T19:04:38.636Z,1.02
2022-10-24T19:06:40.998Z,0.60
2022-10-24T19:08:42.704Z,0.85
2022-10-24T19:10:45.913Z,0.50
2022-10-24T19:12:47.914Z,0.70
2022-10-24T19:14:50.062Z,0.70
2022-10-24T19:16:52.070Z,0.50
2022-10-24T19:18:57.875Z,0.80
2022-10-24T19:21:00.569Z,0.80
2022-10-24T19:23:05.282Z,0.75
2022-10-24T19:25:07.339Z,0.68
2022-10-24T19:27:09.006Z,0.60
2022-10-24T19:29:10.571Z,0.80
2022-10-24T19:31:13.445Z,0.47
2022-10-24T19:33:15.344Z,0.70
2022-10-24T19:35:17.434Z,0.70
2022-10-24T19:37:19.927Z,0.70
2022-10-24T19:39:21.679Z,0.95
2022-10-24T19:41:23.816Z,1.30
2022-10-24T19:43:29.977Z,0.47
2022-10-24T19:45:31.600Z,0.60
2022-10-24T19:47:34.200Z,0.60
2022-10-24T19:49:35.892Z,0.70
2022-10-24T19:51:37.690Z,0.70
2022-10-24T19:53:41.275Z,0.70
2022-10-24T19:55:43.663Z,0.65
2022-10-24T19:57:45.486Z,0.60
2022-10-24T19:59:47.284Z,0.70
2022-10-24T20:01:49.024Z,0.60
2022-10-24T20:03:50.963Z,0.50
2022-10-24T20:05:52.900Z,0.63
2022-10-24T20:07:54.501Z,0.63
2022-10-24T20:09:56.007Z,0.82
2022-10-24T20:11:57.770Z,0.50
2022-10-24T20:13:59.386Z,0.45
2022-10-24T20:16:04.089Z,0.60
2022-10-24T20:18:05.738Z,0.88
2022-10-24T20:20:09.504Z,0.55
2022-10-24T20:22:11.112Z,0.50
2022-10-24T20:24:13.007Z,0.70
2022-10-24T20:26:20.283Z,0.35
2022-10-24T20:28:21.934Z,0.63
2022-10-24T20:30:23.638Z,0.52
2022-10-24T20:32:25.225Z,0.88
2022-10-24T20:34:26.827Z,0.45
2022-10-24T20:36:30.775Z,0.70
2022-10-24T20:38:32.816Z,0.60
2022-10-24T20:40:34.434Z,0.70
2022-10-24T20:42:36.118Z,0.88
2022-10-24T20:44:37.672Z,0.60
2022-10-24T20:46:39.421Z,0.80
2022-10-24T20:48:41.070Z,0.60
2022-10-24T20:50:42.642Z,0.70
2022-10-24T20:52:44.495Z,0.60
2022-10-24T20:54:46.211Z,0.52
2022-10-24T20:56:47.810Z,0.50
2022-10-24T20:58:50.711Z,0.70
2022-10-24T21:00:52.403Z,0.80
2022-10-24T21:02:54.029Z,0.50
2022-10-24T21:04:55.622Z,0.80
2022-10-24T21:06:57.234Z,0.90
2022-10-24T21:09:01.161Z,0.73
2022-10-24T21:11:08.069Z,0.47
2022-10-24T21:13:12.434Z,0.47
2022-10-24T21:15:14.061Z,0.50
2022-10-24T21:17:15.966Z,0.70
2022-10-24T21:19:17.679Z,0.60
2022-10-24T21:21:20.568Z,0.90
2022-10-24T21:23:22.188Z,0.65
2022-10-24T21:25:23.787Z,0.60
2022-10-24T21:27:25.346Z,0.77
2022-10-24T21:29:33.204Z,0.88
2022-10-24T21:31:36.016Z,0.60
2022-10-24T21:33:38.555Z,0.77
2022-10-24T21:35:40.195Z,0.68
2022-10-24T21:37:41.757Z,0.60
2022-10-24T21:39:43.335Z,0.60
2022-10-24T21:41:45.211Z,0.60
2022-10-24T21:43:47.834Z,0.82
2022-10-24T21:45:49.541Z,1.00
2022-10-24T21:47:51.130Z,1.20
2022-10-24T21:49:52.724Z,0.70
2022-10-24T21:51:54.378Z,0.50
2022-10-24T21:53:58.461Z,0.60
2022-10-24T21:56:07.735Z,0.65
2022-10-24T21:58:09.340Z,0.80
2022-10-24T22:00:11.656Z,0.50
2022-10-24T22:02:13.380Z,0.60
2022-10-24T22:04:15.756Z,0.50
2022-10-24T22:06:18.182Z,0.50
2022-10-24T22:08:19.878Z,0.80
2022-10-24T22:10:21.495Z,0.47
2022-10-24T22:12:23.134Z,0.50
2022-10-24T22:14:25.171Z,0.50
2022-10-24T22:16:28.512Z,0.50
2022-10-24T22:18:31.874Z,0.73
2022-10-24T22:20:33.441Z,0.80
2022-10-24T22:22:35.004Z,0.60
2022-10-24T22:24:36.587Z,0.52
2022-10-24T22:26:38.539Z,0.70
2022-10-24T22:28:40.277Z,0.40
2022-10-24T22:30:42.273Z,1.45
2022-10-24T22:32:44.225Z,0.60
2022-10-24T22:34:46.252Z,0.52
2022-10-24T22:37:06.193Z,0.82
2022-10-24T22:39:20.218Z,0.82
2022-10-24T22:41:22.752Z,0.40
2022-10-24T22:43:24.649Z,0.70
2022-10-24T22:45:26.743Z,0.60
2022-10-24T22:47:55.713Z,0.57
2022-10-24T22:50:03.219Z,0.57
2022-10-24T22:52:05.077Z,0.50
2022-10-24T22:54:12.302Z,0.65
2022-10-24T22:56:19.498Z,0.80
2022-10-24T22:58:21.922Z,0.95
2022-10-24T23:00:23.958Z,0.65
2022-10-24T23:02:32.225Z,0.50
2022-10-24T23:04:47.454Z,0.95
2022-10-24T23:06:54.272Z,0.68
2022-10-24T23:08:55.882Z,0.57
2022-10-24T23:10:57.758Z,0.57
2022-10-24T23:12:59.713Z,0.73
2022-10-24T23:15:01.531Z,0.70
2022-10-24T23:17:03.463Z,0.68
2022-10-24T23:19:21.056Z,0.77
2022-10-24T23:21:27.514Z,0.60
2022-10-24T23:23:29.846Z,0.40
2022-10-24T23:25:32.339Z,0.88
2022-10-24T23:27:42.376Z,0.50
2022-10-24T23:29:45.769Z,0.70
2022-10-24T23:31:47.664Z,0.68
2022-10-24T23:33:49.662Z,0.70
2022-10-24T23:35:55.245Z,0.68
2022-10-24T23:37:57.299Z,0.50
2022-10-24T23:40:00.793Z,0.60
2022-10-24T23:42:04.859Z,0.43
2022-10-24T23:44:06.870Z,0.70
2022-10-24T23:46:33.329Z,0.57
2022-10-24T23:48:37.643Z,0.60
2022-10-24T23:50:55.403Z,0.65
2022-10-24T23:53:13.687Z,0.60
2022-10-24T23:55:15.687Z,1.13
2022-10-24T23:57:19.231Z,1.05
2022-10-24T23:59:20.846Z,0.52
